createdAt,value
2019-04-19T00:00:54.329Z,102908.52
2019-04-19T00:03:28.555Z,102910.96
2019-04-19T00:06:05.087Z,102914.06
2019-04-19T00:08:58.908Z,102915.28
2019-04-19T00:11:25.918Z,102915.50
2019-04-19T00:13:51.475Z,102914.25
2019-04-19T00:16:25.736Z,102914.73
2019-04-19T00:19:20.128Z,102919.13
2019-04-19T00:22:01.921Z,102916.74
2019-04-19T00:24:12.118Z,102920.43
2019-04-19T00:26:46.735Z,102914.84
2019-04-19T00:29:28.401Z,102911.99
2019-04-19T00:32:14.080Z,102913.19
2019-04-19T00:34:31.755Z,102911.77
2019-04-19T00:37:05.770Z,102910.63
2019-04-19T00:40:11.796Z,102909.83
2019-04-19T00:42:57.212Z,102917.13
2019-04-19T00:46:16.071Z,102912.52
2019-04-19T00:48:47.451Z,102910.95
2019-04-19T00:51:17.510Z,102902.95
2019-04-19T00:53:57.218Z,102907.33
2019-04-19T00:56:32.606Z,102903.99
2019-04-19T00:59:00.701Z,102905.86
2019-04-19T01:01:32.197Z,102908.19
2019-04-19T01:04:15.585Z,102904.02
2019-04-19T01:06:48.452Z,102905.48
2019-04-19T01:09:30.973Z,102901.44
2019-04-19T01:12:07.916Z,102903.63
2019-04-19T01:14:38.228Z,102907.41
2019-04-19T01:17:16.565Z,102898.61
2019-04-19T01:19:47.205Z,102900.35
2019-04-19T01:22:22.078Z,102902.19
2019-04-19T01:24:52.464Z,102911.00
2019-04-19T01:27:29.483Z,102904.44
2019-04-19T01:30:02.928Z,102911.51
2019-04-19T01:32:47.047Z,102902.80
2019-04-19T01:35:16.681Z,102909.95
2019-04-19T01:37:54.104Z,102909.47
2019-04-19T01:40:44.017Z,102910.62
2019-04-19T01:43:19.035Z,102916.83
2019-04-19T01:46:13.034Z,102913.14
2019-04-19T01:49:05.650Z,102911.51
2019-04-19T01:51:58.654Z,102913.63
2019-04-19T01:54:33.390Z,102910.92
2019-04-19T01:56:58.252Z,102907.63
2019-04-19T01:59:33.284Z,102912.38
2019-04-19T02:02:11.682Z,102912.56
2019-04-19T02:04:41.371Z,102906.17
2019-04-19T02:07:19.694Z,102909.85
2019-04-19T02:10:05.300Z,102906.66
2019-04-19T02:12:39.395Z,102917.98
2019-04-19T02:15:07.952Z,102913.73
2019-04-19T02:17:43.093Z,102913.34
2019-04-19T02:20:14.074Z,102918.61
2019-04-19T02:22:55.149Z,102917.66
2019-04-19T02:25:27.893Z,102919.02
2019-04-19T02:28:00.578Z,102926.37
2019-04-19T02:30:47.942Z,102921.45
2019-04-19T02:33:39.258Z,102921.17
2019-04-19T02:36:19.169Z,102919.25
2019-04-19T02:39:00.685Z,102920.59
2019-04-19T02:41:26.591Z,102921.37
2019-04-19T02:44:03.945Z,102922.48
2019-04-19T02:46:45.419Z,102924.60
2019-04-19T02:51:48.253Z,102927.12
2019-04-19T02:54:28.560Z,102926.25
2019-04-19T02:57:10.207Z,102924.92
2019-04-19T03:00:04.478Z,102929.86
2019-04-19T03:02:50.233Z,102929.75
2019-04-19T03:07:21.744Z,102926.56
2019-04-19T03:09:55.689Z,102922.88
2019-04-19T03:12:48.662Z,102923.84
2019-04-19T03:15:18.771Z,102927.81
2019-04-19T03:18:03.546Z,102927.27
2019-04-19T03:20:34.569Z,102924.55
2019-04-19T03:23:10.780Z,102926.07
2019-04-19T03:25:45.261Z,102928.41
2019-04-19T03:28:19.774Z,102922.80
2019-04-19T03:31:08.227Z,102934.84
2019-04-19T03:36:12.004Z,102926.07
2019-04-19T03:38:45.645Z,102928.18
2019-04-19T03:41:43.207Z,102933.50
2019-04-19T03:44:21.095Z,102931.45
2019-04-19T03:47:06.800Z,102939.48
2019-04-19T03:52:15.630Z,102940.53
2019-04-19T03:54:41.231Z,102941.29
2019-04-19T03:57:16.732Z,102940.21
2019-04-19T03:59:37.241Z,102943.40
2019-04-19T04:02:15.293Z,102943.40
2019-04-19T04:04:52.675Z,102937.48
2019-04-19T04:07:27.079Z,102947.06
2019-04-19T04:10:07.908Z,102951.20
2019-04-19T04:12:55.736Z,102955.25
2019-04-19T04:16:02.780Z,102954.38
2019-04-19T04:18:19.644Z,102956.39
2019-04-19T04:20:57.285Z,102957.53
2019-04-19T04:23:36.439Z,102964.16
2019-04-19T04:26:11.465Z,102964.16
2019-04-19T04:28:52.547Z,102959.84
2019-04-19T04:31:24.517Z,102961.59
2019-04-19T04:34:00.808Z,102961.59
2019-04-19T04:36:45.104Z,102961.59
2019-04-19T04:39:03.496Z,102953.66
2019-04-19T04:41:37.661Z,102970.30
2019-04-19T04:44:29.484Z,102974.13
2019-04-19T04:47:31.372Z,102974.13
2019-04-19T04:50:19.461Z,102976.97
2019-04-19T04:52:37.037Z,102976.79
2019-04-19T04:55:24.284Z,102969.34
2019-04-19T04:58:02.469Z,102969.34
2019-04-19T05:00:44.091Z,102974.66
2019-04-19T05:03:30.534Z,102978.14
2019-04-19T05:06:07.775Z,102982.58
2019-04-19T05:08:38.877Z,102987.81
2019-04-19T05:11:16.745Z,102987.81
2019-04-19T05:13:51.430Z,102975.95
2019-04-19T05:16:35.280Z,102993.13
2019-04-19T05:19:00.571Z,102996.53
2019-04-19T05:21:37.356Z,102986.33
2019-04-19T05:24:15.035Z,102991.07
2019-04-19T05:26:52.484Z,102997.05
2019-04-19T05:29:17.550Z,102998.25
2019-04-19T05:31:46.696Z,102996.72
2019-04-19T05:34:36.279Z,102996.72
2019-04-19T05:37:10.625Z,102998.07
2019-04-19T05:40:11.109Z,102997.32
2019-04-19T05:42:56.495Z,102999.84
2019-04-19T05:45:46.828Z,103004.50
2019-04-19T05:48:00.536Z,103003.44
2019-04-19T05:50:56.749Z,103008.17
2019-04-19T05:53:18.116Z,103003.45
2019-04-19T05:55:41.192Z,103006.57
2019-04-19T05:58:24.140Z,102999.90
2019-04-19T06:01:04.571Z,103015.94
2019-04-19T06:03:43.917Z,103011.10
2019-04-19T06:06:26.130Z,103016.91
2019-04-19T06:08:39.267Z,103014.21
2019-04-19T06:11:15.305Z,103015.45
2019-04-19T06:14:02.844Z,103009.73
2019-04-19T06:16:41.629Z,103014.28
2019-04-19T06:19:26.799Z,103012.11
2019-04-19T06:21:53.450Z,103011.14
2019-04-19T06:24:40.253Z,103019.80
2019-04-19T06:27:17.718Z,103014.44
2019-04-19T06:29:50.270Z,103023.58
2019-04-19T06:32:30.855Z,103029.79
2019-04-19T06:34:58.087Z,103030.64
2019-04-19T06:37:19.688Z,103030.55
2019-04-19T06:40:02.822Z,103034.00
2019-04-19T06:42:35.810Z,103038.07
2019-04-19T06:45:18.923Z,103044.02
2019-04-19T06:47:47.568Z,103045.58
2019-04-19T06:50:17.133Z,103043.69
2019-04-19T06:52:48.952Z,103039.03
2019-04-19T06:55:28.216Z,103044.38
2019-04-19T06:58:11.597Z,103051.72
2019-04-19T07:00:49.556Z,103046.91
2019-04-19T07:03:14.378Z,103050.37
2019-04-19T07:06:06.069Z,103050.70
2019-04-19T07:09:04.092Z,103052.70
2019-04-19T07:11:21.640Z,103056.42
2019-04-19T07:13:45.079Z,103057.21
2019-04-19T07:16:35.006Z,103056.64
2019-04-19T07:19:07.947Z,103065.53
2019-04-19T07:21:44.008Z,103061.34
2019-04-19T07:24:28.204Z,103061.64
2019-04-19T07:26:52.450Z,103065.02
2019-04-19T07:29:10.633Z,103064.03
2019-04-19T07:31:44.974Z,103067.42
2019-04-19T07:34:37.234Z,103063.83
2019-04-19T07:37:14.714Z,103072.75
2019-04-19T07:39:55.665Z,103072.98
2019-04-19T07:42:38.812Z,103073.88
2019-04-19T07:45:05.303Z,103079.67
2019-04-19T07:47:47.429Z,103077.41
2019-04-19T07:50:22.654Z,103078.46
2019-04-19T07:52:55.415Z,103083.02
2019-04-19T07:55:26.767Z,103079.10
2019-04-19T07:58:30.373Z,103089.20
2019-04-19T08:01:12.143Z,103092.84
2019-04-19T08:03:47.839Z,103091.97
2019-04-19T08:06:18.977Z,103094.08
2019-04-19T08:08:57.100Z,103102.83
2019-04-19T08:11:51.320Z,103101.50
2019-04-19T08:14:00.939Z,103105.79
2019-04-19T08:17:22.352Z,103099.02
2019-04-19T08:29:22.431Z,103139.13
2019-04-19T08:31:44.482Z,103137.66
2019-04-19T08:34:21.726Z,103142.02
2019-04-19T08:37:00.021Z,103155.44
2019-04-19T08:39:45.692Z,103157.42
2019-04-19T08:42:28.598Z,103150.46
2019-04-19T08:44:52.491Z,103160.31
2019-04-19T08:48:04.739Z,103159.66
2019-04-19T08:50:35.988Z,103163.66
2019-04-19T08:53:26.780Z,103158.17
2019-04-19T08:56:00.752Z,103158.66
2019-04-19T08:58:36.386Z,103151.41
2019-04-19T09:01:18.997Z,103151.58
2019-04-19T09:03:54.033Z,103143.84
2019-04-19T09:08:58.163Z,103141.09
2019-04-19T09:11:33.693Z,103149.33
2019-04-19T09:14:13.526Z,103141.84
2019-04-19T09:16:51.229Z,103150.22
2019-04-19T09:19:37.519Z,103150.39
2019-04-19T09:21:55.887Z,103139.47
2019-04-19T09:24:26.999Z,103135.66
2019-04-19T09:27:05.981Z,103142.66
2019-04-19T09:29:45.047Z,103142.30
2019-04-19T09:32:10.279Z,103132.16
2019-04-19T09:34:43.978Z,103137.91
2019-04-19T09:37:21.675Z,103137.11
2019-04-19T09:40:00.769Z,103131.50
2019-04-19T09:42:37.871Z,103130.91
2019-04-19T09:45:02.626Z,103128.44
2019-04-19T09:47:36.013Z,103132.61
2019-04-19T09:50:21.188Z,103125.11
2019-04-19T09:53:10.926Z,103119.81
2019-04-19T09:55:42.044Z,103122.77
2019-04-19T09:58:19.797Z,103119.07
2019-04-19T10:00:33.986Z,103120.70
2019-04-19T10:03:18.749Z,103127.02
2019-04-19T10:05:44.635Z,103121.50
2019-04-19T10:08:19.723Z,103118.70
2019-04-19T10:10:54.777Z,103120.78
2019-04-19T10:13:30.023Z,103119.55
2019-04-19T10:16:14.740Z,103115.63
2019-04-19T10:18:53.972Z,103117.06
2019-04-19T10:21:33.392Z,103118.77
2019-04-19T10:24:11.747Z,103114.81
2019-04-19T10:26:58.985Z,103105.80
2019-04-19T10:29:38.143Z,103108.45
2019-04-19T10:32:16.815Z,103105.73
2019-04-19T10:34:50.593Z,103096.00
2019-04-19T10:37:25.932Z,103090.38
2019-04-19T10:39:59.833Z,103096.41
2019-04-19T10:42:33.671Z,103092.29
2019-04-19T10:45:10.076Z,103095.54
2019-04-19T10:47:44.223Z,103096.10
2019-04-19T10:50:29.399Z,103094.99
2019-04-19T10:52:56.479Z,103083.14
2019-04-19T10:55:36.267Z,103081.21
2019-04-19T10:58:11.520Z,103076.30
2019-04-19T11:00:45.413Z,103076.84
2019-04-19T11:03:19.436Z,103071.59
2019-04-19T11:05:54.520Z,103071.95
2019-04-19T11:08:28.736Z,103071.88
2019-04-19T11:11:03.608Z,103067.61
2019-04-19T11:13:38.139Z,103055.69
2019-04-19T11:16:12.213Z,103057.44
2019-04-19T11:18:47.652Z,103053.07
2019-04-19T11:21:21.706Z,103057.13
2019-04-19T11:23:55.785Z,103057.89
2019-04-19T11:26:30.568Z,103052.19
2019-04-19T11:29:04.384Z,103054.14
2019-04-19T11:32:04.429Z,103056.50
2019-04-19T11:34:38.960Z,103052.34
2019-04-19T11:37:14.107Z,103039.63
2019-04-19T11:39:48.751Z,103040.98
2019-04-19T11:42:23.328Z,103045.78
2019-04-19T11:44:57.482Z,103048.94
2019-04-19T11:47:31.181Z,103042.50
2019-04-19T11:50:06.474Z,103039.50
2019-04-19T11:53:06.194Z,103040.56
2019-04-19T11:55:42.653Z,103043.87
2019-04-19T11:58:17.002Z,103032.87
2019-04-19T12:01:03.712Z,103034.18
2019-04-19T12:03:40.300Z,103033.34
2019-04-19T12:06:14.335Z,103030.48
2019-04-19T12:08:49.620Z,103036.64
2019-04-19T12:11:24.301Z,103020.84
2019-04-19T12:13:58.422Z,103014.62
2019-04-19T12:16:32.900Z,103018.86
2019-04-19T12:19:07.101Z,103024.58
2019-04-19T12:21:41.321Z,103025.67
2019-04-19T12:24:15.067Z,103005.58
2019-04-19T12:26:49.480Z,103015.06
2019-04-19T12:29:30.042Z,103015.81
2019-04-19T12:31:58.868Z,103015.23
2019-04-19T12:34:32.961Z,103002.66
2019-04-19T12:37:07.021Z,103004.70
2019-04-19T12:39:41.183Z,103006.92
2019-04-19T12:42:31.856Z,103005.79
2019-04-19T12:45:08.208Z,103003.52
2019-04-19T12:47:42.973Z,103016.09
2019-04-19T12:50:17.949Z,103007.49
2019-04-19T12:52:52.179Z,103004.42
2019-04-19T12:55:28.065Z,103008.87
2019-04-19T12:58:04.078Z,103001.92
2019-04-19T13:01:01.787Z,102998.22
2019-04-19T13:03:54.768Z,102998.98
2019-04-19T13:06:31.514Z,102998.99
2019-04-19T13:09:11.087Z,102999.50
2019-04-19T13:11:45.118Z,102997.20
2019-04-19T13:14:19.653Z,102997.93
2019-04-19T13:16:54.465Z,102990.66
2019-04-19T13:19:29.110Z,102985.48
2019-04-19T13:22:02.969Z,102980.13
2019-04-19T13:24:36.733Z,102981.61
2019-04-19T13:27:11.589Z,102976.61
2019-04-19T13:29:45.886Z,102980.55
2019-04-19T13:32:20.076Z,102976.20
2019-04-19T13:34:54.874Z,102984.89
2019-04-19T13:37:45.251Z,102979.02
2019-04-19T13:40:38.637Z,102978.92
2019-04-19T13:43:13.090Z,102979.96
2019-04-19T13:45:47.400Z,102971.41
2019-04-19T13:48:22.783Z,102965.34
2019-04-19T13:50:56.675Z,102969.94
2019-04-19T13:53:30.905Z,102970.08
2019-04-19T13:56:06.541Z,102971.84
2019-04-19T13:58:40.304Z,102964.78
2019-04-19T14:01:14.567Z,102967.68
2019-04-19T14:03:48.436Z,102971.71
2019-04-19T14:06:24.448Z,102974.03
2019-04-19T14:08:58.355Z,102974.03
2019-04-19T14:11:33.095Z,102967.14
2019-04-19T14:14:07.812Z,102954.80
2019-04-19T14:16:41.980Z,102952.59
2019-04-19T14:19:16.402Z,102953.55
2019-04-19T14:21:50.913Z,102954.47
2019-04-19T14:24:25.217Z,102953.91
2019-04-19T14:27:00.749Z,102960.17
2019-04-19T14:29:35.326Z,102952.49
2019-04-19T14:32:09.457Z,102948.00
2019-04-19T14:34:43.737Z,102949.20
2019-04-19T14:37:18.810Z,102950.40
2019-04-19T14:39:52.715Z,102945.16
2019-04-19T14:42:28.424Z,102952.33
2019-04-19T14:45:02.155Z,102952.91
2019-04-19T14:47:37.072Z,102941.25
2019-04-19T14:50:12.689Z,102940.48
2019-04-19T14:52:46.582Z,102931.12
2019-04-19T14:55:21.147Z,102942.67
2019-04-19T14:57:56.122Z,102936.28
2019-04-19T15:00:30.689Z,102936.92
2019-04-19T15:03:15.082Z,102931.02
2019-04-19T15:05:50.415Z,102927.31
2019-04-19T15:08:24.454Z,102919.61
2019-04-19T15:10:58.137Z,102916.72
2019-04-19T15:13:32.761Z,102917.66
2019-04-19T15:16:06.958Z,102910.92
2019-04-19T15:18:40.775Z,102904.44
2019-04-19T15:21:17.572Z,102902.48
2019-04-19T15:23:50.216Z,102897.55
2019-04-19T15:26:24.914Z,102898.48
2019-04-19T15:28:59.071Z,102899.74
2019-04-19T15:31:32.868Z,102890.80
2019-04-19T15:34:06.766Z,102894.67
2019-04-19T15:36:41.579Z,102896.46
2019-04-19T15:39:15.823Z,102886.41
2019-04-19T15:41:50.658Z,102889.20
2019-04-19T15:44:25.123Z,102893.92
2019-04-19T15:46:59.910Z,102890.98
2019-04-19T15:49:34.107Z,102889.12
2019-04-19T15:52:08.131Z,102889.66
2019-04-19T15:54:41.926Z,102889.66
2019-04-19T15:57:16.379Z,102890.87
2019-04-19T15:59:51.701Z,102896.55
2019-04-19T16:02:36.177Z,102889.05
2019-04-19T16:05:28.369Z,102884.31
2019-04-19T16:08:24.768Z,102885.70
2019-04-19T16:11:16.540Z,102888.97
2019-04-19T16:13:50.227Z,102892.36
2019-04-19T16:16:24.822Z,102893.38
2019-04-19T16:18:58.700Z,102888.60
2019-04-19T16:21:41.005Z,102887.22
2019-04-19T16:24:09.106Z,102892.42
2019-04-19T16:26:42.935Z,102892.39
2019-04-19T16:29:30.479Z,102891.37
2019-04-19T16:31:52.220Z,102883.19
2019-04-19T16:34:27.162Z,102890.02
2019-04-19T16:37:01.067Z,102887.95
2019-04-19T16:39:35.521Z,102883.17
2019-04-19T16:42:09.529Z,102889.03
2019-04-19T16:44:43.704Z,102887.19
2019-04-19T16:47:17.458Z,102886.23
2019-04-19T16:49:52.187Z,102884.97
2019-04-19T16:52:26.909Z,102882.83
2019-04-19T16:55:00.793Z,102888.42
2019-04-19T16:57:34.960Z,102877.61
2019-04-19T17:00:10.965Z,102876.66
2019-04-19T17:02:45.015Z,102877.20
2019-04-19T17:05:18.922Z,102878.08
2019-04-19T17:07:53.284Z,102879.12
2019-04-19T17:10:27.028Z,102882.78
2019-04-19T17:13:01.194Z,102879.34
2019-04-19T17:15:52.906Z,102881.44
2019-04-19T17:18:52.868Z,102883.91
2019-04-19T17:21:28.167Z,102884.30
2019-04-19T17:24:02.884Z,102885.39
2019-04-19T17:26:37.318Z,102891.26
2019-04-19T17:29:11.212Z,102891.30
2019-04-19T17:31:45.268Z,102897.16
2019-04-19T17:34:20.179Z,102897.85
2019-04-19T17:36:53.967Z,102896.81
2019-04-19T17:39:28.808Z,102894.44
2019-04-19T17:42:02.570Z,102894.25
2019-04-19T17:44:37.435Z,102897.34
2019-04-19T17:47:13.208Z,102910.44
2019-04-19T17:49:48.574Z,102903.55
2019-04-19T17:52:27.153Z,102899.59
2019-04-19T17:55:10.401Z,102909.73
2019-04-19T17:57:34.053Z,102914.39
2019-04-19T18:00:10.225Z,102912.64
2019-04-19T18:02:44.097Z,102919.02
2019-04-19T18:05:18.058Z,102920.19
2019-04-19T18:07:52.536Z,102924.26
2019-04-19T18:10:37.748Z,102923.53
2019-04-19T18:13:03.422Z,102921.45
2019-04-19T18:15:38.425Z,102925.00
2019-04-19T18:18:13.687Z,102926.49
2019-04-19T18:20:52.489Z,102926.45
2019-04-19T18:23:34.757Z,102933.10
2019-04-19T18:25:59.197Z,102930.81
2019-04-19T18:28:38.074Z,102930.55
2019-04-19T18:31:11.077Z,102934.09
2019-04-19T18:33:58.903Z,102942.23
2019-04-19T18:36:25.689Z,102941.84
2019-04-19T18:39:00.294Z,102947.02
2019-04-19T18:41:34.616Z,102945.39
2019-04-19T18:44:18.709Z,102948.72
2019-04-19T18:46:44.881Z,102952.02
2019-04-19T18:49:18.693Z,102953.56
2019-04-19T18:51:54.011Z,102953.80
2019-04-19T18:54:42.276Z,102952.66
2019-04-19T18:57:06.316Z,102950.47
2019-04-19T18:59:39.110Z,102958.28
2019-04-19T19:02:16.092Z,102962.67
2019-04-19T19:04:48.703Z,102967.83
2019-04-19T19:07:26.539Z,102963.42
2019-04-19T19:10:02.625Z,102966.05
2019-04-19T19:12:39.477Z,102967.64
2019-04-19T19:15:12.542Z,102971.48
2019-04-19T19:17:51.003Z,102966.88
2019-04-19T19:20:27.669Z,102974.78
2019-04-19T19:23:15.425Z,102977.88
2019-04-19T19:25:48.292Z,102981.16
2019-04-19T19:28:20.008Z,102980.51
2019-04-19T19:30:53.557Z,102988.57
2019-04-19T19:33:36.533Z,102994.42
2019-04-19T19:36:03.922Z,102994.41
2019-04-19T19:38:41.611Z,102992.91
2019-04-19T19:41:35.202Z,102991.75
2019-04-19T19:44:01.259Z,102993.31
2019-04-19T19:46:55.780Z,102993.65
2019-04-19T19:49:37.307Z,102999.67
2019-04-19T19:51:50.062Z,102999.36
2019-04-19T19:57:11.434Z,102999.91
2019-04-19T19:59:33.327Z,102997.86
2019-04-19T20:02:16.767Z,102996.61
2019-04-19T20:04:41.240Z,102999.66
2019-04-19T20:07:17.580Z,102999.14
2019-04-19T20:09:53.895Z,102997.34
2019-04-19T20:12:29.355Z,103000.78
2019-04-19T20:15:02.919Z,103009.27
2019-04-19T20:17:37.343Z,103008.23
2019-04-19T20:20:12.182Z,103011.33
2019-04-19T20:22:48.812Z,103010.60
2019-04-19T20:25:32.489Z,103016.32
2019-04-19T20:27:59.327Z,103022.67
2019-04-19T20:30:37.952Z,103025.80
2019-04-19T20:33:11.661Z,103026.96
2019-04-19T20:35:53.946Z,103027.22
2019-04-19T20:38:23.659Z,103021.65
2019-04-19T20:40:59.846Z,103032.83
2019-04-19T20:43:45.882Z,103029.13
2019-04-19T20:46:15.923Z,103033.66
2019-04-19T20:48:45.827Z,103031.44
2019-04-19T20:51:35.385Z,103033.81
2019-04-19T20:54:06.138Z,103032.88
2019-04-19T20:57:04.373Z,103027.81
2019-04-19T20:59:18.179Z,103028.59
2019-04-19T21:01:52.815Z,103031.95
2019-04-19T21:04:27.061Z,103032.08
2019-04-19T21:07:07.972Z,103025.42
2019-04-19T21:09:37.509Z,103034.84
2019-04-19T21:12:17.088Z,103027.78
2019-04-19T21:14:48.717Z,103037.05
2019-04-19T21:17:26.267Z,103031.13
2019-04-19T21:19:58.483Z,103032.49
2019-04-19T21:22:36.412Z,103035.70
2019-04-19T21:25:16.633Z,103040.04
2019-04-19T21:27:49.195Z,103043.01
2019-04-19T21:30:20.924Z,103037.31
2019-04-19T21:33:04.384Z,103041.42
2019-04-19T21:35:33.168Z,103044.77
2019-04-19T21:38:14.244Z,103047.73
2019-04-19T21:40:45.689Z,103048.34
2019-04-19T21:43:23.432Z,103045.86
2019-04-19T21:45:55.672Z,103057.12
2019-04-19T21:48:34.785Z,103051.57
2019-04-19T21:51:06.013Z,103058.73
2019-04-19T21:53:43.973Z,103057.46
2019-04-19T21:56:17.169Z,103054.45
2019-04-19T21:58:54.378Z,103055.55
2019-04-19T22:01:27.972Z,103059.34
2019-04-19T22:04:08.539Z,103061.33
2019-04-19T22:06:39.056Z,103064.39
2019-04-19T22:09:19.283Z,103056.91
2019-04-19T22:11:50.054Z,103060.87
2019-04-19T22:14:29.347Z,103053.92
2019-04-19T22:17:00.918Z,103059.09
2019-04-19T22:19:39.057Z,103059.70
2019-04-19T22:22:21.211Z,103055.12
2019-04-19T22:24:51.139Z,103052.64
2019-04-19T22:27:25.399Z,103052.64
2019-04-19T22:29:59.803Z,103050.67
2019-04-19T22:32:34.440Z,103059.25
2019-04-19T22:35:15.136Z,103055.28
2019-04-19T22:37:44.175Z,103055.17
2019-04-19T22:40:18.811Z,103053.92
2019-04-19T22:43:01.600Z,103056.60
2019-04-19T22:45:28.756Z,103050.64
2019-04-19T22:48:12.546Z,103053.20
2019-04-19T22:50:40.484Z,103053.95
2019-04-19T22:53:19.107Z,103051.45
2019-04-19T22:55:59.227Z,103046.73
2019-04-19T22:58:29.967Z,103046.95
2019-04-19T23:01:03.186Z,103054.08
2019-04-19T23:03:41.898Z,103057.27
2019-04-19T23:06:20.731Z,103054.67
2019-04-19T23:08:50.543Z,103052.06
2019-04-19T23:11:25.717Z,103051.30
2019-04-19T23:14:01.089Z,103055.05
2019-04-19T23:16:43.604Z,103056.02
2019-04-19T23:19:14.135Z,103053.41
2019-04-19T23:21:48.422Z,103054.06
2019-04-19T23:24:22.981Z,103047.97
2019-04-19T23:27:09.649Z,103048.68
2019-04-19T23:29:34.948Z,103050.78
2019-04-19T23:32:09.051Z,103050.13
2019-04-19T23:34:49.185Z,103052.08
2019-04-19T23:37:19.604Z,103047.14
2019-04-19T23:39:54.941Z,103053.20
2019-04-19T23:42:29.734Z,103055.89
2019-04-19T23:45:06.267Z,103048.25
2019-04-19T23:47:44.920Z,103051.88
2019-04-19T23:50:17.575Z,103050.34
2019-04-19T23:52:56.231Z,103050.10
2019-04-19T23:55:28.693Z,103048.84
2019-04-19T23:58:03.085Z,103044.67
